exclusive-profit.com
Gissis screenshot
Платит
Платит

Наш вклад: 150.00$
AllMonitors: ISP HYIP.biz HYIPBOX Gissis.Com Review, Technical Analysis, RCBs and more at AllStats.io allhyipdetails.com Detailed analysis and reviews HYIP project Gissis
Принимает: PerfectMoney Payeer Bitcoin Ethereum Litecoin Bitcoin Cash
Для получения RCB Вам нужно выполнить следующие действия:
  • Сумму депозита
  • Ваш логин
  • Номер кошелька
Депозит % Первый Повторный
Минимум Максимум Рефбек Бонус Рефбек Бонус
$40 $50 1.00% 1200% $0.00 500% $0.00
$51 $80 1.00% 1000% $0.00 500% $0.00
$81 $100 1.00% 1000% $0.00 300% $0.00
$101 $200 1.00% 900% $0.00 300% $0.00
$201 $300 1.00% 900% $0.00 300% $0.00
$301 $500 1.00% 850% $0.00 300% $0.00
$501 $1000 1.00% 600% $0.00 300% $0.00
$1001 $2000 1.00% 600% $0.00 300% $0.00
$2001 $5000 1.00% 500% $0.00 300% $0.00
$5001 and more 1.00% 500% $0.00 300% $0.00
Заказать RCB
Вы можете зарегистрироваться и войти на наш сайт чтобы отслеживать ваши рефбеки
Ваш E-mail:
Логин в проекте:
Сумма депозита(USD):
RCB Quote
1-й депозит: $0.00
2-й депозит: $0.00
Платежная система
Платёжные реквизиты
Ваш комментарий:
Капча:
Дата Пользователь Депозит/RCB Аккаунт Статус
19.09.2020 | 11:05:23 sta*** $50/$6.00 Payeer P10*** Выплачено
19.09.2020 | 11:05:23 mik*** $50/$6.00 Payeer P10*** Выплачено
14.09.2020 | 06:25:08 Eve*** $40/$2.00 PerfectMoney U12*** Выплачено
14.09.2020 | 10:39:23 sem*** $50/$2.50 PerfectMoney U24*** Выплачено
12.09.2020 | 10:44:58 sem*** $78/$3.90 PerfectMoney U24*** Выплачено
09.09.2020 | 03:05:36 Sog*** $40/$2.00 PerfectMoney U72*** Выплачено
09.09.2020 | 11:03:50 gis*** $100/$10.00 PerfectMoney U68*** Выплачено
04.09.2020 | 03:40:25 Cay*** $100/$10.00 Payeer P31*** Выплачено
03.09.2020 | 11:24:44 Rea*** $40/$2.00 Payeer P10*** Выплачено
03.09.2020 | 08:41:00 Rea*** $50/$2.50 PerfectMoney U22*** Выплачено
27.08.2020 | 11:40:28 sta*** $50/$6.00 Payeer P10*** Выплачено
27.08.2020 | 05:48:00 flo*** $50/$6.00 Payeer P10*** Выплачено
27.08.2020 | 01:28:51 sem*** $50/$2.50 PerfectMoney U24*** Выплачено
25.08.2020 | 06:28:44 Eve*** $40/$2.00 PerfectMoney U12*** Выплачено
25.08.2020 | 06:28:45 Rea*** $40/$2.00 Payeer P10*** Выплачено
24.08.2020 | 07:10:50 sem*** $50/$2.50 PerfectMoney U24*** Выплачено
21.08.2020 | 10:02:27 sem*** $76/$3.80 PerfectMoney U24*** Выплачено
20.08.2020 | 09:37:15 gis*** $100/$10.00 PerfectMoney U10*** Выплачено
18.08.2020 | 11:31:42 Sog*** $40/$2.00 PerfectMoney U72*** Выплачено
16.08.2020 | 10:23:17 Ast*** $50/$2.50 PerfectMoney U23*** Выплачено
14.08.2020 | 01:03:28 Rea*** $40/$2.00 PerfectMoney U22*** Выплачено
14.08.2020 | 08:55:50 Rea*** $40/$2.00 Payeer P10*** Выплачено
12.08.2020 | 11:30:32 Rea*** $40/$2.00 PerfectMoney U22*** Выплачено
13.08.2020 | 12:35:39 Hei*** $40/$4.80 PerfectMoney U14*** Выплачено
09.08.2020 | 07:38:45 sem*** $50/$6.00 PerfectMoney U24*** Выплачено
09.08.2020 | 11:55:37 nvt*** $100/$10.00 PerfectMoney U24*** Выплачено
05.08.2020 | 07:46:38 Eve*** $40/$4.80 PerfectMoney U12*** Выплачено
02.08.2020 | 10:01:56 eli*** $40/$2.40 PerfectMoney U21*** Выплачено
01.08.2020 | 04:26:39 cha*** $50/$6.00 Payeer P10*** Выплачено
01.08.2020 | 04:26:39 mar*** $50/$6.00 Payeer P10*** Выплачено
27.07.2020 | 08:31:49 Ast*** $50/$6.00 PerfectMoney U23*** Выплачено
25.07.2020 | 11:33:41 Sog*** $40/$2.00 PerfectMoney U72*** Выплачено
25.07.2020 | 05:39:48 Rea*** $40/$2.00 Payeer P10*** Выплачено
25.07.2020 | 10:04:27 Rea*** $40/$2.00 PerfectMoney U22*** Выплачено
24.07.2020 | 07:27:58 ben*** $40/$2.00 PerfectMoney U11*** Выплачено
20.07.2020 | 01:44:19 eli*** $40/$2.00 PerfectMoney U21*** Выплачено
19.07.2020 | 04:43:24 bro*** $50/$6.00 PerfectMoney U24*** Выплачено
10.07.2020 | 02:53:15 par*** $50/$6.00 Payeer P10*** Выплачено
10.07.2020 | 02:53:15 jam*** $50/$6.00 Payeer P10*** Выплачено
09.07.2020 | 10:52:27 gis*** $100/$10.00 PerfectMoney U10*** Выплачено
07.07.2020 | 06:18:21 Rea*** $40/$2.00 Payeer P10*** Выплачено
07.07.2020 | 02:21:17 Rea*** $40/$2.00 PerfectMoney U22*** Выплачено
06.07.2020 | 06:33:12 ben*** $40/$2.00 PerfectMoney U11*** Выплачено
06.07.2020 | 07:07:50 Sog*** $40/$2.00 PerfectMoney U72*** Выплачено
01.07.2020 | 09:58:41 lis*** $50/$6.00 PerfectMoney U59*** Выплачено
26.06.2020 | 05:13:57 dor*** $100/$10.00 PerfectMoney U96*** Выплачено
22.06.2020 | 04:34:57 nik*** $50/$2.50 PerfectMoney U10*** Выплачено
21.06.2020 | 06:48:04 egi*** $50/$6.00 Payeer P10*** Выплачено
21.06.2020 | 06:48:04 jeb*** $50/$6.00 Payeer P10*** Выплачено
17.06.2020 | 01:16:52 Rea*** $41/$2.04 Payeer P10*** Выплачено
17.06.2020 | 09:18:08 Shh*** $114/$10.26 Bitcoin 1M5*** Выплачено
17.06.2020 | 07:00:32 Rea*** $41/$2.04 PerfectMoney U22*** Выплачено
16.06.2020 | 04:33:28 ben*** $40/$2.00 PerfectMoney U11*** Выплачено
12.06.2020 | 11:27:23 Sog*** $40/$2.00 PerfectMoney U72*** Выплачено
02.06.2020 | 12:04:39 nik*** $50/$2.50 PerfectMoney U10*** Выплачено
28.05.2020 | 11:36:57 nik*** $50/$5.50 Payeer P10*** Выплачено
28.05.2020 | 11:36:57 gra*** $50/$5.50 Payeer P10*** Выплачено
28.05.2020 | 11:36:58 eli*** $40/$4.40 PerfectMoney U21*** Выплачено
27.05.2020 | 07:12:20 ben*** $40/$4.40 PerfectMoney U11*** Выплачено
22.05.2020 | 08:43:17 Sog*** $40/$2.00 PerfectMoney U72*** Выплачено
10.05.2020 | 11:25:00 hwi*** $50/$2.50 PerfectMoney U18*** Выплачено
08.05.2020 | 10:48:44 zar*** $40/$4.40 Payeer P10*** Выплачено
06.05.2020 | 11:38:52 dav*** $50/$5.50 Payeer P10*** Выплачено
05.05.2020 | 11:42:52 ant*** $50/$5.50 Payeer P10*** Выплачено
29.04.2020 | 02:32:26 Sog*** $40/$2.00 PerfectMoney U72*** Выплачено
29.04.2020 | 10:57:04 Rea*** $40/$2.00 PerfectMoney U22*** Выплачено
27.04.2020 | 10:10:51 Res*** $450/$27.00 PerfectMoney U39*** Выплачено
24.04.2020 | 02:41:08 Zaz*** $60/$5.70 Payeer P66*** Выплачено
23.04.2020 | 03:23:53 Bur*** $150/$11.25 PerfectMoney U22*** Выплачено
23.04.2020 | 09:46:43 nik*** $50/$2.50 PerfectMoney U10*** Выплачено
20.04.2020 | 08:50:17 Mar*** $400/$24.00 PerfectMoney U28*** Выплачено
20.04.2020 | 06:45:23 Sog*** $20/$1.00 PerfectMoney U72*** Выплачено
20.04.2020 | 11:57:18 Ras*** $300/$21.00 PerfectMoney U43*** Выплачено
19.04.2020 | 10:57:08 Til*** $250/$17.50 PerfectMoney U28*** Выплачено
18.04.2020 | 11:15:42 Res*** $350/$21.00 PerfectMoney U48*** Выплачено
18.04.2020 | 10:51:26 Rea*** $47/$2.34 PerfectMoney U22*** Выплачено
18.04.2020 | 11:42:48 sim*** $55/$2.75 Ethereum 0xc*** Выплачено
18.04.2020 | 01:07:25 Rea*** $47/$2.35 Payeer P10*** Выплачено
17.04.2020 | 02:09:56 Wen*** $400/$24.00 PerfectMoney U38*** Выплачено
17.04.2020 | 11:38:18 bob*** $40/$2.00 PerfectMoney U17*** Выплачено
17.04.2020 | 11:33:19 Ten*** $320/$19.20 PerfectMoney U48*** Выплачено
16.04.2020 | 05:56:24 T10*** $20/$2.80 PerfectMoney U18*** Выплачено
15.04.2020 | 04:53:41 Lon*** $250/$17.50 Payeer P57*** Выплачено
15.04.2020 | 09:41:06 ste*** $50/$5.50 Payeer P10*** Выплачено
15.04.2020 | 09:49:36 Rem*** $350/$21.00 PerfectMoney U84*** Выплачено
13.04.2020 | 07:04:28 Sog*** $20/$2.80 PerfectMoney U72*** Выплачено
13.04.2020 | 10:02:15 Rea*** $15/$1.50 PerfectMoney U22*** Выплачено
13.04.2020 | 10:02:09 sep*** $20/$2.80 PerfectMoney U17*** Выплачено
13.04.2020 | 10:01:47 asa*** $50/$5.50 Payeer P15*** Выплачено
13.04.2020 | 09:51:01 Rea*** $15/$1.50 Payeer P10*** Выплачено
12.04.2020 | 05:01:21 And*** $450/$13.50 Payeer P58*** Выплачено
12.04.2020 | 10:19:25 Rec*** $200/$15.00 PerfectMoney U38*** Выплачено
11.04.2020 | 09:23:06 Rea*** $15/$1.50 PerfectMoney U22*** Выплачено
11.04.2020 | 10:48:34 Rea*** $15/$1.50 Payeer P10*** Выплачено
10.04.2020 | 07:10:49 bob*** $50/$2.50 PerfectMoney U17*** Выплачено
09.04.2020 | 05:23:16 wmm*** $30/$3.90 PerfectMoney U18*** Выплачено
09.04.2020 | 09:48:48 Wen*** $320/$19.20 PerfectMoney U48*** Выплачено
08.04.2020 | 06:20:54 Rea*** $15/$1.50 PerfectMoney U22*** Выплачено
08.04.2020 | 07:32:21 Hla*** $420/$25.20 Bitcoin 3jf*** Выплачено
08.04.2020 | 07:32:33 Rea*** $15/$1.50 Payeer P10*** Выплачено
07.04.2020 | 11:58:38 bob*** $30/$1.50 PerfectMoney U17*** Выплачено
06.04.2020 | 06:36:45 Tri*** $350/$21.00 PerfectMoney U48*** Выплачено
06.04.2020 | 06:53:46 the*** $50/$5.50 PerfectMoney U32*** Выплачено
05.04.2020 | 08:22:26 sup*** $25/$3.25 PerfectMoney P10*** Выплачено
05.04.2020 | 10:37:33 Den*** $15/$1.50 PerfectMoney U36*** Выплачено
04.04.2020 | 12:12:58 GLA*** $2,000/$100.00 PerfectMoney U88*** Выплачено
04.04.2020 | 09:12:19 Rea*** $15/$1.50 Payeer P10*** Выплачено
03.04.2020 | 09:44:58 Sam*** $350/$21.00 PerfectMoney U75*** Выплачено
03.04.2020 | 09:05:45 Kos*** $15/$1.50 PerfectMoney U11*** Выплачено
03.04.2020 | 08:28:09 Rea*** $15/$1.50 Payeer P10*** Выплачено
02.04.2020 | 10:17:02 nik*** $50/$5.50 PerfectMoney U10*** Выплачено
02.04.2020 | 10:17:33 Rea*** $15/$1.50 Payeer P10*** Выплачено
02.04.2020 | 05:16:22 Rea*** $30/$1.50 PerfectMoney U22*** Выплачено
01.04.2020 | 03:13:53 Rea*** $30/$3.00 Payeer P10*** Выплачено
01.04.2020 | 02:56:55 Rea*** $30/$3.00 PerfectMoney U22*** Выплачено
30.03.2020 | 09:15:33 shu*** $15/$2.33 Payeer P10*** Выплачено
29.03.2020 | 10:43:28 Den*** $15/$2.50 PerfectMoney U36*** Выплачено
29.03.2020 | 10:43:01 ann*** $30/$4.90 PerfectMoney U13*** Выплачено
29.03.2020 | 05:09:41 let*** $50/$5.50 PerfectMoney U37*** Выплачено
28.03.2020 | 11:03:25 hwi*** $84/$5.04 Bitcoin 36W*** Выплачено
25.03.2020 | 08:38:20 Ksu*** $100/$9.50 PerfectMoney U21*** Выплачено
25.03.2020 | 08:37:54 bar*** $15/$2.33 Payeer P10*** Выплачено
25.03.2020 | 08:15:29 Rea*** $30/$3.00 Payeer P10*** Выплачено
24.03.2020 | 04:47:18 ser*** $50/$5.50 Payeer P10*** Выплачено
24.03.2020 | 09:03:00 Rea*** $30/$3.00 PerfectMoney U22*** Выплачено
23.03.2020 | 09:35:49 Rea*** $50/$4.50 PerfectMoney U22*** Выплачено
23.03.2020 | 04:25:45 sim*** $15/$1.50 Payeer P10*** Выплачено
23.03.2020 | 11:10:01 bob*** $50/$5.50 PerfectMoney U17*** Выплачено
22.03.2020 | 09:10:41 Str*** $20/$3.36 PerfectMoney U22*** Выплачено
22.03.2020 | 12:17:03 Den*** $15/$1.50 PerfectMoney U36*** Выплачено
20.03.2020 | 09:09:53 Ell*** $50/$5.50 PerfectMoney U20*** Выплачено
18.03.2020 | 05:57:21 Kos*** $20/$2.00 PerfectMoney U11*** Выплачено
18.03.2020 | 10:24:38 Wla*** $15/$2.33 Payeer P20*** Выплачено
18.03.2020 | 10:24:31 Rea*** $50/$4.50 Payeer P10*** Выплачено
12.03.2020 | 07:48:03 Ray*** $15/$2.33 PerfectMoney U17*** Выплачено
09.03.2020 | 04:45:07 sim*** $15/$1.50 Payeer P10*** Выплачено
09.03.2020 | 04:44:52 Rea*** $40/$3.60 Payeer P10*** Выплачено
09.03.2020 | 09:17:07 Rea*** $30/$3.90 Payeer P10*** Выплачено
08.03.2020 | 07:47:08 sma*** $15/$2.33 Payeer P10*** Выплачено
08.03.2020 | 09:42:34 hwi*** $100/$9.50 Bitcoin 36W*** Выплачено
07.03.2020 | 06:04:51 kro*** $25/$3.25 Payeer P10*** Выплачено
06.03.2020 | 07:32:38 sim*** $20/$2.80 PerfectMoney P10*** Выплачено
01.03.2020 | 07:23:28 vro*** $50/$5.50 PerfectMoney U19*** Выплачено
29.02.2020 | 09:19:36 And*** $47/$4.23 Payeer P58*** Выплачено
25.02.2020 | 07:44:51 And*** $50/$5.50 Payeer P58*** Выплачено
20.02.2020 | 09:25:24 Den*** $17/$2.38 PerfectMoney U36*** Выплачено
20.02.2020 | 12:14:24 mon*** $17/$0.35 PerfectMoney U13*** Выплачено
20.02.2020 | 12:14:08 Nat*** $17/$0.35 PerfectMoney U16*** Выплачено
20.02.2020 | 12:13:38 Kos*** $15/$0.35 PerfectMoney U11*** Выплачено
Всего депозитов:
$12866.1
RCB выплачено:
$903.94
Новые проекты
18.09.2020
Finexgen
Платит
15.09.2020
Altpile
В ожидании
08.09.2020
Asher Trade
Платит
USA Forex
Платит
21.08.2020
British FX
Платит
17.08.2020
VIP
ТОП
инвесторов
  • Valent
    4,200.00 $
  • Andrii
    2,000.00 $
  • libra88
    1,600.00 $
  • Sogo
    1,005.51 $
  • Baronn30
    785.00 $
Лучшие по RCB

Блог
VK
Facebook
Telegram Канал
Telegram Чат
mmgp.com
onlineinvestments.club
Twitter
YouTube
подписаться
на рассылку